Terminal Aerodrome Forecast
Issued by NWS

Home | Current Version | Previous Version | Text Only | Print | Product List | Glossary On
Versions: 1 2 3 4 5 6 7 8 9 10 11 12 13 14 15 16 17 18 19 20
000
FTUS44 KBMX 232300
TAFTOI
TAF
KTOI 232320Z 2400/2424 19010KT P6SM BKN025 BKN035
     FM240500 20006KT 4SM BR OVC010
      TEMPO 2411/2414 BKN007
     FM241500 25012KT P6SM BKN025
     FM241800 27009KT P6SM SCT100=

USA.gov is the U.S. government's official web portal to all federal, state and local government web resources and services.